sensor_id;sensor_type;location;lat;lon;timestamp;P1;durP1;ratioP1;P2;durP2;ratioP2
6755;SDS011;3415;51.148;7.014;2023-05-07T00:02:23;2.73;;;2.10;;
6755;SDS011;3415;51.148;7.014;2023-05-07T00:04:51;3.27;;;2.30;;
6755;SDS011;3415;51.148;7.014;2023-05-07T00:07:18;1.87;;;1.77;;
6755;SDS011;3415;51.148;7.014;2023-05-07T00:09:45;9.63;;;2.10;;
6755;SDS011;3415;51.148;7.014;2023-05-07T00:12:12;2.30;;;1.90;;
6755;SDS011;3415;51.148;7.014;2023-05-07T00:14:39;2.73;;;2.30;;
6755;SDS011;3415;51.148;7.014;2023-05-07T00:17:06;3.73;;;2.20;;
6755;SDS011;3415;51.148;7.014;2023-05-07T00:19:33;3.40;;;2.30;;
6755;SDS011;3415;51.148;7.014;2023-05-07T00:22:01;4.90;;;1.80;;
6755;SDS011;3415;51.148;7.014;2023-05-07T00:24:28;1.87;;;1.70;;
6755;SDS011;3415;51.148;7.014;2023-05-07T00:26:55;3.13;;;1.90;;
6755;SDS011;3415;51.148;7.014;2023-05-07T00:29:23;1.80;;;1.70;;
6755;SDS011;3415;51.148;7.014;2023-05-07T00:31:50;3.33;;;1.87;;
6755;SDS011;3415;51.148;7.014;2023-05-07T00:34:18;1.70;;;1.60;;
6755;SDS011;3415;51.148;7.014;2023-05-07T00:36:45;3.50;;;2.00;;
6755;SDS011;3415;51.148;7.014;2023-05-07T00:39:13;2.67;;;2.47;;
6755;SDS011;3415;51.148;7.014;2023-05-07T00:41:40;2.70;;;2.50;;
6755;SDS011;3415;51.148;7.014;2023-05-07T00:44:07;2.10;;;2.00;;
6755;SDS011;3415;51.148;7.014;2023-05-07T00:46:34;4.33;;;2.40;;
6755;SDS011;3415;51.148;7.014;2023-05-07T00:49:01;3.13;;;1.93;;
6755;SDS011;3415;51.148;7.014;2023-05-07T00:51:28;2.40;;;2.20;;
6755;SDS011;3415;51.148;7.014;2023-05-07T00:53:56;3.50;;;2.03;;
6755;SDS011;3415;51.148;7.014;2023-05-07T00:56:24;2.10;;;1.90;;
6755;SDS011;3415;51.148;7.014;2023-05-07T00:58:51;4.43;;;2.40;;
6755;SDS011;3415;51.148;7.014;2023-05-07T01:01:18;2.60;;;2.30;;
6755;SDS011;3415;51.148;7.014;2023-05-07T01:03:45;2.57;;;2.37;;
6755;SDS011;3415;51.148;7.014;2023-05-07T01:06:12;4.43;;;2.20;;
6755;SDS011;3415;51.148;7.014;2023-05-07T01:08:41;2.30;;;2.10;;
6755;SDS011;3415;51.148;7.014;2023-05-07T01:11:08;1.97;;;1.80;;
6755;SDS011;3415;51.148;7.014;2023-05-07T01:13:38;2.13;;;2.00;;
6755;SDS011;3415;51.148;7.014;2023-05-07T01:16:06;4.90;;;2.30;;
6755;SDS011;3415;51.148;7.014;2023-05-07T01:18:34;2.40;;;2.00;;
6755;SDS011;3415;51.148;7.014;2023-05-07T01:21:01;2.47;;;1.87;;
6755;SDS011;3415;51.148;7.014;2023-05-07T01:23:32;1.60;;;1.50;;
6755;SDS011;3415;51.148;7.014;2023-05-07T01:26:00;2.13;;;1.87;;
6755;SDS011;3415;51.148;7.014;2023-05-07T01:28:27;2.53;;;1.60;;
6755;SDS011;3415;51.148;7.014;2023-05-07T01:30:55;1.63;;;1.53;;
6755;SDS011;3415;51.148;7.014;2023-05-07T01:33:24;3.50;;;1.70;;
6755;SDS011;3415;51.148;7.014;2023-05-07T01:35:56;2.00;;;1.90;;
6755;SDS011;3415;51.148;7.014;2023-05-07T01:38:25;2.50;;;1.80;;
6755;SDS011;3415;51.148;7.014;2023-05-07T01:40:54;2.27;;;1.70;;
6755;SDS011;3415;51.148;7.014;2023-05-07T01:43:22;2.70;;;1.70;;
6755;SDS011;3415;51.148;7.014;2023-05-07T01:45:49;1.73;;;1.47;;
6755;SDS011;3415;51.148;7.014;2023-05-07T01:48:16;1.90;;;1.70;;
6755;SDS011;3415;51.148;7.014;2023-05-07T01:50:44;3.40;;;1.40;;
6755;SDS011;3415;51.148;7.014;2023-05-07T01:53:11;2.00;;;1.90;;
6755;SDS011;3415;51.148;7.014;2023-05-07T01:55:38;7.93;;;2.10;;
6755;SDS011;3415;51.148;7.014;2023-05-07T01:58:06;1.80;;;1.60;;
6755;SDS011;3415;51.148;7.014;2023-05-07T02:00:33;3.07;;;1.80;;
6755;SDS011;3415;51.148;7.014;2023-05-07T02:03:00;2.40;;;1.63;;
6755;SDS011;3415;51.148;7.014;2023-05-07T02:05:26;1.80;;;1.70;;
6755;SDS011;3415;51.148;7.014;2023-05-07T02:07:53;2.30;;;1.57;;
6755;SDS011;3415;51.148;7.014;2023-05-07T02:10:20;1.20;;;1.20;;
6755;SDS011;3415;51.148;7.014;2023-05-07T02:12:47;1.50;;;1.37;;
6755;SDS011;3415;51.148;7.014;2023-05-07T02:15:15;1.77;;;1.47;;
6755;SDS011;3415;51.148;7.014;2023-05-07T02:17:57;1.67;;;1.57;;
6755;SDS011;3415;51.148;7.014;2023-05-07T02:20:25;2.80;;;1.60;;
6755;SDS011;3415;51.148;7.014;2023-05-07T02:22:52;1.50;;;1.40;;
6755;SDS011;3415;51.148;7.014;2023-05-07T02:25:19;2.93;;;1.67;;
6755;SDS011;3415;51.148;7.014;2023-05-07T02:27:46;1.63;;;1.53;;
6755;SDS011;3415;51.148;7.014;2023-05-07T02:30:13;2.53;;;1.93;;
6755;SDS011;3415;51.148;7.014;2023-05-07T02:32:42;1.83;;;1.60;;
6755;SDS011;3415;51.148;7.014;2023-05-07T02:35:08;5.70;;;1.50;;
6755;SDS011;3415;51.148;7.014;2023-05-07T02:37:35;3.07;;;1.80;;
6755;SDS011;3415;51.148;7.014;2023-05-07T02:40:02;2.47;;;1.70;;
6755;SDS011;3415;51.148;7.014;2023-05-07T02:42:30;2.43;;;1.83;;
6755;SDS011;3415;51.148;7.014;2023-05-07T02:44:57;1.80;;;1.70;;
6755;SDS011;3415;51.148;7.014;2023-05-07T02:47:25;1.27;;;1.17;;
6755;SDS011;3415;51.148;7.014;2023-05-07T02:49:53;2.43;;;1.63;;
6755;SDS011;3415;51.148;7.014;2023-05-07T02:52:20;5.20;;;1.63;;
6755;SDS011;3415;51.148;7.014;2023-05-07T02:54:47;6.10;;;1.90;;
6755;SDS011;3415;51.148;7.014;2023-05-07T02:57:14;2.57;;;1.80;;
6755;SDS011;3415;51.148;7.014;2023-05-07T02:59:41;1.60;;;1.50;;
6755;SDS011;3415;51.148;7.014;2023-05-07T03:02:08;1.90;;;1.60;;
6755;SDS011;3415;51.148;7.014;2023-05-07T03:04:36;2.20;;;1.30;;
6755;SDS011;3415;51.148;7.014;2023-05-07T03:07:04;1.87;;;1.77;;
6755;SDS011;3415;51.148;7.014;2023-05-07T03:09:30;1.60;;;1.50;;
6755;SDS011;3415;51.148;7.014;2023-05-07T03:11:57;2.20;;;1.60;;
6755;SDS011;3415;51.148;7.014;2023-05-07T03:14:24;2.20;;;1.60;;
6755;SDS011;3415;51.148;7.014;2023-05-07T03:16:51;2.03;;;1.27;;
6755;SDS011;3415;51.148;7.014;2023-05-07T03:19:18;4.23;;;2.07;;
6755;SDS011;3415;51.148;7.014;2023-05-07T03:21:46;8.47;;;2.70;;
6755;SDS011;3415;51.148;7.014;2023-05-07T03:24:13;3.83;;;1.80;;
6755;SDS011;3415;51.148;7.014;2023-05-07T03:26:40;1.87;;;1.47;;
6755;SDS011;3415;51.148;7.014;2023-05-07T03:29:06;11.20;;;1.90;;
6755;SDS011;3415;51.148;7.014;2023-05-07T03:31:33;2.13;;;1.80;;
6755;SDS011;3415;51.148;7.014;2023-05-07T03:34:00;3.90;;;1.87;;
6755;SDS011;3415;51.148;7.014;2023-05-07T03:36:27;11.23;;;2.30;;
6755;SDS011;3415;51.148;7.014;2023-05-07T03:38:55;4.70;;;1.63;;
6755;SDS011;3415;51.148;7.014;2023-05-07T03:41:22;6.33;;;1.83;;
6755;SDS011;3415;51.148;7.014;2023-05-07T03:43:49;1.23;;;1.13;;
6755;SDS011;3415;51.148;7.014;2023-05-07T03:46:16;1.77;;;1.60;;
6755;SDS011;3415;51.148;7.014;2023-05-07T03:48:42;1.63;;;1.53;;
6755;SDS011;3415;51.148;7.014;2023-05-07T03:51:09;1.60;;;1.47;;
6755;SDS011;3415;51.148;7.014;2023-05-07T03:53:36;3.63;;;2.10;;
6755;SDS011;3415;51.148;7.014;2023-05-07T03:56:04;1.90;;;1.50;;
6755;SDS011;3415;51.148;7.014;2023-05-07T03:58:31;2.57;;;1.67;;
6755;SDS011;3415;51.148;7.014;2023-05-07T04:00:58;2.80;;;1.97;;
6755;SDS011;3415;51.148;7.014;2023-05-07T04:03:26;3.00;;;1.90;;
6755;SDS011;3415;51.148;7.014;2023-05-07T04:05:52;2.20;;;2.03;;
6755;SDS011;3415;51.148;7.014;2023-05-07T04:08:19;1.87;;;1.67;;
6755;SDS011;3415;51.148;7.014;2023-05-07T04:10:46;2.20;;;1.70;;
6755;SDS011;3415;51.148;7.014;2023-05-07T04:13:14;1.47;;;1.37;;
6755;SDS011;3415;51.148;7.014;2023-05-07T04:15:41;2.57;;;1.70;;
6755;SDS011;3415;51.148;7.014;2023-05-07T04:18:08;2.13;;;1.93;;
6755;SDS011;3415;51.148;7.014;2023-05-07T04:20:35;2.50;;;1.80;;
6755;SDS011;3415;51.148;7.014;2023-05-07T04:23:02;18.77;;;2.30;;
6755;SDS011;3415;51.148;7.014;2023-05-07T04:25:29;4.80;;;2.00;;
6755;SDS011;3415;51.148;7.014;2023-05-07T04:27:56;2.50;;;1.80;;
6755;SDS011;3415;51.148;7.014;2023-05-07T04:30:24;3.27;;;1.70;;
6755;SDS011;3415;51.148;7.014;2023-05-07T04:32:51;2.90;;;2.50;;
6755;SDS011;3415;51.148;7.014;2023-05-07T04:35:18;2.20;;;2.00;;
6755;SDS011;3415;51.148;7.014;2023-05-07T04:37:45;1.63;;;1.53;;
6755;SDS011;3415;51.148;7.014;2023-05-07T04:40:12;3.97;;;1.50;;
6755;SDS011;3415;51.148;7.014;2023-05-07T04:42:39;2.20;;;2.00;;
6755;SDS011;3415;51.148;7.014;2023-05-07T04:45:06;4.23;;;1.90;;
6755;SDS011;3415;51.148;7.014;2023-05-07T04:47:36;2.00;;;1.77;;
6755;SDS011;3415;51.148;7.014;2023-05-07T04:50:03;2.37;;;1.80;;
6755;SDS011;3415;51.148;7.014;2023-05-07T04:52:31;1.87;;;1.60;;
6755;SDS011;3415;51.148;7.014;2023-05-07T04:54:58;2.97;;;1.70;;
6755;SDS011;3415;51.148;7.014;2023-05-07T04:57:25;3.13;;;2.00;;
6755;SDS011;3415;51.148;7.014;2023-05-07T04:59:52;1.77;;;1.67;;
6755;SDS011;3415;51.148;7.014;2023-05-07T05:02:19;2.03;;;1.37;;
6755;SDS011;3415;51.148;7.014;2023-05-07T05:04:47;7.47;;;2.30;;
6755;SDS011;3415;51.148;7.014;2023-05-07T05:07:14;1.40;;;1.30;;
6755;SDS011;3415;51.148;7.014;2023-05-07T05:09:41;1.60;;;1.50;;
6755;SDS011;3415;51.148;7.014;2023-05-07T05:12:07;1.70;;;1.60;;
6755;SDS011;3415;51.148;7.014;2023-05-07T05:14:34;2.07;;;1.43;;
6755;SDS011;3415;51.148;7.014;2023-05-07T05:17:01;2.50;;;1.40;;
6755;SDS011;3415;51.148;7.014;2023-05-07T05:19:28;2.90;;;2.00;;
6755;SDS011;3415;51.148;7.014;2023-05-07T05:21:56;1.70;;;1.60;;
6755;SDS011;3415;51.148;7.014;2023-05-07T05:24:23;2.33;;;1.60;;
6755;SDS011;3415;51.148;7.014;2023-05-07T05:26:50;1.60;;;1.50;;
6755;SDS011;3415;51.148;7.014;2023-05-07T05:29:19;24.97;;;2.00;;
6755;SDS011;3415;51.148;7.014;2023-05-07T05:31:46;3.20;;;2.07;;
6755;SDS011;3415;51.148;7.014;2023-05-07T05:34:13;1.80;;;1.70;;
6755;SDS011;3415;51.148;7.014;2023-05-07T05:36:39;1.53;;;1.43;;
6755;SDS011;3415;51.148;7.014;2023-05-07T05:39:08;3.03;;;1.50;;
6755;SDS011;3415;51.148;7.014;2023-05-07T05:41:35;2.90;;;1.60;;
6755;SDS011;3415;51.148;7.014;2023-05-07T05:44:02;1.50;;;1.40;;
6755;SDS011;3415;51.148;7.014;2023-05-07T05:46:28;2.53;;;1.67;;
6755;SDS011;3415;51.148;7.014;2023-05-07T05:48:56;1.40;;;1.30;;
6755;SDS011;3415;51.148;7.014;2023-05-07T05:51:23;1.50;;;1.40;;
6755;SDS011;3415;51.148;7.014;2023-05-07T05:53:50;1.43;;;1.33;;
6755;SDS011;3415;51.148;7.014;2023-05-07T05:56:18;1.70;;;1.30;;
6755;SDS011;3415;51.148;7.014;2023-05-07T05:58:46;1.50;;;1.40;;
6755;SDS011;3415;51.148;7.014;2023-05-07T06:01:13;4.43;;;1.60;;
6755;SDS011;3415;51.148;7.014;2023-05-07T06:03:40;1.53;;;1.43;;
6755;SDS011;3415;51.148;7.014;2023-05-07T06:06:06;2.20;;;1.50;;
6755;SDS011;3415;51.148;7.014;2023-05-07T06:08:33;2.53;;;1.20;;
6755;SDS011;3415;51.148;7.014;2023-05-07T06:11:01;4.07;;;1.70;;
6755;SDS011;3415;51.148;7.014;2023-05-07T06:13:29;2.97;;;1.67;;
6755;SDS011;3415;51.148;7.014;2023-05-07T06:15:56;1.47;;;1.37;;
6755;SDS011;3415;51.148;7.014;2023-05-07T06:18:23;2.90;;;2.03;;
6755;SDS011;3415;51.148;7.014;2023-05-07T06:20:51;1.60;;;1.50;;
6755;SDS011;3415;51.148;7.014;2023-05-07T06:23:18;3.10;;;1.50;;
6755;SDS011;3415;51.148;7.014;2023-05-07T06:25:47;4.33;;;1.17;;
6755;SDS011;3415;51.148;7.014;2023-05-07T06:28:14;1.70;;;1.60;;
6755;SDS011;3415;51.148;7.014;2023-05-07T06:30:43;3.13;;;1.37;;
6755;SDS011;3415;51.148;7.014;2023-05-07T06:33:10;1.97;;;1.87;;
6755;SDS011;3415;51.148;7.014;2023-05-07T06:35:36;3.27;;;1.57;;
6755;SDS011;3415;51.148;7.014;2023-05-07T06:38:03;2.13;;;1.33;;
6755;SDS011;3415;51.148;7.014;2023-05-07T06:40:30;2.20;;;1.60;;
6755;SDS011;3415;51.148;7.014;2023-05-07T06:42:57;2.17;;;1.40;;
6755;SDS011;3415;51.148;7.014;2023-05-07T06:45:24;1.60;;;1.47;;
6755;SDS011;3415;51.148;7.014;2023-05-07T06:47:52;2.30;;;1.40;;
6755;SDS011;3415;51.148;7.014;2023-05-07T06:50:19;1.23;;;1.23;;
6755;SDS011;3415;51.148;7.014;2023-05-07T06:52:46;1.33;;;1.23;;
6755;SDS011;3415;51.148;7.014;2023-05-07T06:55:13;1.63;;;1.40;;
6755;SDS011;3415;51.148;7.014;2023-05-07T06:57:39;1.40;;;1.30;;
6755;SDS011;3415;51.148;7.014;2023-05-07T07:00:07;1.33;;;1.23;;
6755;SDS011;3415;51.148;7.014;2023-05-07T07:02:35;22.93;;;1.60;;
6755;SDS011;3415;51.148;7.014;2023-05-07T07:05:04;1.33;;;1.20;;
6755;SDS011;3415;51.148;7.014;2023-05-07T07:07:31;7.90;;;1.47;;
6755;SDS011;3415;51.148;7.014;2023-05-07T07:09:58;3.70;;;1.00;;
6755;SDS011;3415;51.148;7.014;2023-05-07T07:12:25;43.47;;;3.20;;
6755;SDS011;3415;51.148;7.014;2023-05-07T07:14:51;4.00;;;1.30;;
6755;SDS011;3415;51.148;7.014;2023-05-07T07:17:18;1.33;;;1.00;;
6755;SDS011;3415;51.148;7.014;2023-05-07T07:19:45;1.20;;;1.10;;
6755;SDS011;3415;51.148;7.014;2023-05-07T07:22:13;1.47;;;1.37;;
6755;SDS011;3415;51.148;7.014;2023-05-07T07:24:40;2.70;;;1.23;;
6755;SDS011;3415;51.148;7.014;2023-05-07T07:27:08;1.47;;;1.37;;
6755;SDS011;3415;51.148;7.014;2023-05-07T07:29:35;5.00;;;1.53;;
6755;SDS011;3415;51.148;7.014;2023-05-07T07:32:01;2.03;;;1.33;;
6755;SDS011;3415;51.148;7.014;2023-05-07T07:34:28;1.50;;;1.40;;
6755;SDS011;3415;51.148;7.014;2023-05-07T07:36:55;1.40;;;1.30;;
6755;SDS011;3415;51.148;7.014;2023-05-07T07:39:23;1.50;;;1.40;;
6755;SDS011;3415;51.148;7.014;2023-05-07T07:41:50;2.30;;;1.23;;
6755;SDS011;3415;51.148;7.014;2023-05-07T07:44:17;1.33;;;1.20;;
6755;SDS011;3415;51.148;7.014;2023-05-07T07:46:44;1.50;;;1.10;;
6755;SDS011;3415;51.148;7.014;2023-05-07T07:49:10;1.40;;;1.30;;
6755;SDS011;3415;51.148;7.014;2023-05-07T07:51:37;0.97;;;0.97;;
6755;SDS011;3415;51.148;7.014;2023-05-07T07:54:04;2.10;;;1.27;;
6755;SDS011;3415;51.148;7.014;2023-05-07T07:56:33;3.90;;;1.33;;
6755;SDS011;3415;51.148;7.014;2023-05-07T07:59:00;1.30;;;1.20;;
6755;SDS011;3415;51.148;7.014;2023-05-07T08:01:28;1.60;;;1.50;;
6755;SDS011;3415;51.148;7.014;2023-05-07T08:03:56;4.53;;;1.40;;
6755;SDS011;3415;51.148;7.014;2023-05-07T08:06:23;2.10;;;1.20;;
6755;SDS011;3415;51.148;7.014;2023-05-07T08:08:51;2.37;;;1.43;;
6755;SDS011;3415;51.148;7.014;2023-05-07T08:11:18;1.30;;;1.20;;
6755;SDS011;3415;51.148;7.014;2023-05-07T08:13:46;3.17;;;1.63;;
6755;SDS011;3415;51.148;7.014;2023-05-07T08:16:13;3.87;;;1.70;;
6755;SDS011;3415;51.148;7.014;2023-05-07T08:18:40;1.63;;;1.53;;
6755;SDS011;3415;51.148;7.014;2023-05-07T08:21:07;5.17;;;2.47;;
6755;SDS011;3415;51.148;7.014;2023-05-07T08:23:34;1.47;;;1.37;;
6755;SDS011;3415;51.148;7.014;2023-05-07T08:26:01;2.30;;;1.17;;
6755;SDS011;3415;51.148;7.014;2023-05-07T08:28:28;1.50;;;1.20;;
6755;SDS011;3415;51.148;7.014;2023-05-07T08:30:56;5.77;;;1.63;;
6755;SDS011;3415;51.148;7.014;2023-05-07T08:33:25;1.50;;;1.33;;
6755;SDS011;3415;51.148;7.014;2023-05-07T08:35:52;1.30;;;1.30;;
6755;SDS011;3415;51.148;7.014;2023-05-07T08:38:19;2.60;;;1.87;;
6755;SDS011;3415;51.148;7.014;2023-05-07T08:40:46;2.50;;;1.40;;
6755;SDS011;3415;51.148;7.014;2023-05-07T08:43:13;1.27;;;1.20;;
6755;SDS011;3415;51.148;7.014;2023-05-07T08:45:40;2.23;;;2.03;;
6755;SDS011;3415;51.148;7.014;2023-05-07T08:48:12;5.23;;;1.60;;
6755;SDS011;3415;51.148;7.014;2023-05-07T08:50:41;2.23;;;1.17;;
6755;SDS011;3415;51.148;7.014;2023-05-07T08:53:08;1.30;;;1.20;;
6755;SDS011;3415;51.148;7.014;2023-05-07T08:55:35;2.10;;;1.43;;
6755;SDS011;3415;51.148;7.014;2023-05-07T08:58:03;1.80;;;1.20;;
6755;SDS011;3415;51.148;7.014;2023-05-07T09:00:30;6.40;;;1.60;;
6755;SDS011;3415;51.148;7.014;2023-05-07T09:02:56;25.27;;;1.77;;
6755;SDS011;3415;51.148;7.014;2023-05-07T09:05:25;1.37;;;1.10;;
6755;SDS011;3415;51.148;7.014;2023-05-07T09:07:52;1.63;;;1.53;;
6755;SDS011;3415;51.148;7.014;2023-05-07T09:10:20;1.43;;;1.20;;
6755;SDS011;3415;51.148;7.014;2023-05-07T09:12:47;1.27;;;1.17;;
6755;SDS011;3415;51.148;7.014;2023-05-07T09:15:14;3.87;;;1.20;;
6755;SDS011;3415;51.148;7.014;2023-05-07T09:17:41;1.90;;;1.27;;
6755;SDS011;3415;51.148;7.014;2023-05-07T09:20:09;1.13;;;1.03;;
6755;SDS011;3415;51.148;7.014;2023-05-07T09:22:38;1.57;;;1.37;;
6755;SDS011;3415;51.148;7.014;2023-05-07T09:25:05;2.23;;;1.30;;
6755;SDS011;3415;51.148;7.014;2023-05-07T09:27:32;3.60;;;1.10;;
6755;SDS011;3415;51.148;7.014;2023-05-07T09:30:02;1.30;;;1.20;;
6755;SDS011;3415;51.148;7.014;2023-05-07T09:32:33;1.73;;;1.63;;
6755;SDS011;3415;51.148;7.014;2023-05-07T09:35:00;1.10;;;1.10;;
6755;SDS011;3415;51.148;7.014;2023-05-07T09:37:28;4.60;;;1.10;;
6755;SDS011;3415;51.148;7.014;2023-05-07T09:39:58;1.40;;;1.27;;
6755;SDS011;3415;51.148;7.014;2023-05-07T09:42:25;6.10;;;1.40;;
6755;SDS011;3415;51.148;7.014;2023-05-07T09:44:53;3.33;;;1.20;;
6755;SDS011;3415;51.148;7.014;2023-05-07T09:47:20;1.23;;;1.13;;
6755;SDS011;3415;51.148;7.014;2023-05-07T09:49:52;2.73;;;1.50;;
6755;SDS011;3415;51.148;7.014;2023-05-07T09:52:22;1.70;;;1.13;;
6755;SDS011;3415;51.148;7.014;2023-05-07T09:54:50;1.90;;;1.10;;
6755;SDS011;3415;51.148;7.014;2023-05-07T09:57:19;11.33;;;1.80;;
6755;SDS011;3415;51.148;7.014;2023-05-07T09:59:47;3.57;;;1.50;;
6755;SDS011;3415;51.148;7.014;2023-05-07T10:02:17;1.77;;;1.30;;
6755;SDS011;3415;51.148;7.014;2023-05-07T10:04:46;5.80;;;1.30;;
6755;SDS011;3415;51.148;7.014;2023-05-07T10:07:14;1.80;;;1.50;;
6755;SDS011;3415;51.148;7.014;2023-05-07T10:09:42;1.30;;;1.20;;
6755;SDS011;3415;51.148;7.014;2023-05-07T10:12:11;2.77;;;1.70;;
6755;SDS011;3415;51.148;7.014;2023-05-07T10:14:39;1.30;;;1.00;;
6755;SDS011;3415;51.148;7.014;2023-05-07T10:17:06;1.07;;;0.97;;
6755;SDS011;3415;51.148;7.014;2023-05-07T10:19:34;1.20;;;1.10;;
6755;SDS011;3415;51.148;7.014;2023-05-07T10:22:02;3.43;;;1.40;;
6755;SDS011;3415;51.148;7.014;2023-05-07T10:24:32;1.07;;;1.07;;
6755;SDS011;3415;51.148;7.014;2023-05-07T10:27:00;3.47;;;1.40;;
6755;SDS011;3415;51.148;7.014;2023-05-07T10:29:33;2.03;;;1.20;;
6755;SDS011;3415;51.148;7.014;2023-05-07T10:32:19;0.90;;;0.90;;
6755;SDS011;3415;51.148;7.014;2023-05-07T10:35:04;1.47;;;1.00;;
6755;SDS011;3415;51.148;7.014;2023-05-07T10:37:35;2.87;;;1.53;;
6755;SDS011;3415;51.148;7.014;2023-05-07T10:40:02;1.53;;;1.30;;
6755;SDS011;3415;51.148;7.014;2023-05-07T10:42:32;1.07;;;0.97;;
6755;SDS011;3415;51.148;7.014;2023-05-07T10:45:10;1.07;;;0.97;;
6755;SDS011;3415;51.148;7.014;2023-05-07T10:47:48;1.10;;;1.00;;
6755;SDS011;3415;51.148;7.014;2023-05-07T10:50:32;2.03;;;1.40;;
6755;SDS011;3415;51.148;7.014;2023-05-07T10:55:51;3.27;;;1.23;;
6755;SDS011;3415;51.148;7.014;2023-05-07T10:58:38;1.37;;;1.27;;
6755;SDS011;3415;51.148;7.014;2023-05-07T11:01:05;1.50;;;1.40;;
6755;SDS011;3415;51.148;7.014;2023-05-07T11:03:33;1.20;;;1.10;;
6755;SDS011;3415;51.148;7.014;2023-05-07T11:06:09;1.23;;;0.90;;
6755;SDS011;3415;51.148;7.014;2023-05-07T11:08:53;1.83;;;1.73;;
6755;SDS011;3415;51.148;7.014;2023-05-07T11:11:36;2.23;;;1.23;;
6755;SDS011;3415;51.148;7.014;2023-05-07T11:14:10;1.10;;;1.10;;
6755;SDS011;3415;51.148;7.014;2023-05-07T11:16:37;1.00;;;1.00;;
6755;SDS011;3415;51.148;7.014;2023-05-07T11:19:07;2.93;;;1.43;;
6755;SDS011;3415;51.148;7.014;2023-05-07T11:21:35;4.50;;;1.20;;
6755;SDS011;3415;51.148;7.014;2023-05-07T11:24:03;1.50;;;1.40;;
6755;SDS011;3415;51.148;7.014;2023-05-07T11:26:30;1.73;;;1.47;;
6755;SDS011;3415;51.148;7.014;2023-05-07T11:29:10;2.70;;;1.30;;
6755;SDS011;3415;51.148;7.014;2023-05-07T11:31:37;1.53;;;1.17;;
6755;SDS011;3415;51.148;7.014;2023-05-07T11:34:04;2.40;;;1.30;;
6755;SDS011;3415;51.148;7.014;2023-05-07T11:36:33;1.93;;;1.40;;
6755;SDS011;3415;51.148;7.014;2023-05-07T11:39:01;1.20;;;1.10;;
6755;SDS011;3415;51.148;7.014;2023-05-07T11:41:34;1.40;;;1.30;;
6755;SDS011;3415;51.148;7.014;2023-05-07T11:44:02;1.00;;;1.00;;
6755;SDS011;3415;51.148;7.014;2023-05-07T11:46:29;3.50;;;1.50;;
6755;SDS011;3415;51.148;7.014;2023-05-07T11:48:56;1.30;;;1.20;;
6755;SDS011;3415;51.148;7.014;2023-05-07T11:51:24;2.40;;;1.10;;
6755;SDS011;3415;51.148;7.014;2023-05-07T11:53:53;3.73;;;1.40;;
6755;SDS011;3415;51.148;7.014;2023-05-07T11:56:20;1.50;;;1.40;;
6755;SDS011;3415;51.148;7.014;2023-05-07T11:58:47;1.50;;;1.30;;
6755;SDS011;3415;51.148;7.014;2023-05-07T12:01:14;4.27;;;1.43;;
6755;SDS011;3415;51.148;7.014;2023-05-07T12:03:43;2.00;;;1.27;;
6755;SDS011;3415;51.148;7.014;2023-05-07T12:06:11;35.07;;;4.80;;
6755;SDS011;3415;51.148;7.014;2023-05-07T12:08:40;3.00;;;1.67;;
6755;SDS011;3415;51.148;7.014;2023-05-07T12:11:09;1.70;;;1.10;;
6755;SDS011;3415;51.148;7.014;2023-05-07T12:13:39;1.50;;;1.40;;
6755;SDS011;3415;51.148;7.014;2023-05-07T12:16:07;2.13;;;1.43;;
6755;SDS011;3415;51.148;7.014;2023-05-07T12:18:34;2.63;;;1.17;;
6755;SDS011;3415;51.148;7.014;2023-05-07T12:21:02;1.43;;;1.20;;
6755;SDS011;3415;51.148;7.014;2023-05-07T12:23:31;1.00;;;0.97;;
6755;SDS011;3415;51.148;7.014;2023-05-07T12:25:58;1.60;;;1.50;;
6755;SDS011;3415;51.148;7.014;2023-05-07T12:28:27;1.00;;;1.00;;
6755;SDS011;3415;51.148;7.014;2023-05-07T12:30:55;1.10;;;1.00;;
6755;SDS011;3415;51.148;7.014;2023-05-07T12:33:24;1.07;;;1.07;;
6755;SDS011;3415;51.148;7.014;2023-05-07T12:35:54;2.30;;;1.40;;
6755;SDS011;3415;51.148;7.014;2023-05-07T12:38:21;2.10;;;1.40;;
6755;SDS011;3415;51.148;7.014;2023-05-07T12:40:49;1.20;;;1.10;;
6755;SDS011;3415;51.148;7.014;2023-05-07T12:43:17;2.20;;;1.33;;
6755;SDS011;3415;51.148;7.014;2023-05-07T12:45:46;1.60;;;1.50;;
6755;SDS011;3415;51.148;7.014;2023-05-07T12:48:14;1.80;;;1.37;;
6755;SDS011;3415;51.148;7.014;2023-05-07T12:50:41;1.23;;;1.13;;
6755;SDS011;3415;51.148;7.014;2023-05-07T12:53:10;2.60;;;1.40;;
6755;SDS011;3415;51.148;7.014;2023-05-07T12:55:40;1.73;;;1.20;;
6755;SDS011;3415;51.148;7.014;2023-05-07T12:58:08;1.53;;;1.20;;
6755;SDS011;3415;51.148;7.014;2023-05-07T13:00:42;1.47;;;1.37;;
6755;SDS011;3415;51.148;7.014;2023-05-07T13:03:10;1.93;;;1.10;;
6755;SDS011;3415;51.148;7.014;2023-05-07T13:05:37;1.63;;;1.47;;
6755;SDS011;3415;51.148;7.014;2023-05-07T13:08:05;1.50;;;1.30;;
6755;SDS011;3415;51.148;7.014;2023-05-07T13:10:34;1.37;;;1.27;;
6755;SDS011;3415;51.148;7.014;2023-05-07T13:13:01;2.07;;;1.30;;
6755;SDS011;3415;51.148;7.014;2023-05-07T13:15:28;3.03;;;2.70;;
6755;SDS011;3415;51.148;7.014;2023-05-07T13:17:55;1.27;;;1.17;;
6755;SDS011;3415;51.148;7.014;2023-05-07T13:20:23;2.30;;;1.37;;
6755;SDS011;3415;51.148;7.014;2023-05-07T13:22:50;4.43;;;1.50;;
6755;SDS011;3415;51.148;7.014;2023-05-07T13:25:17;2.50;;;1.50;;
6755;SDS011;3415;51.148;7.014;2023-05-07T13:27:45;3.03;;;2.10;;
6755;SDS011;3415;51.148;7.014;2023-05-07T13:30:12;2.60;;;1.80;;
6755;SDS011;3415;51.148;7.014;2023-05-07T13:32:39;3.13;;;1.90;;
6755;SDS011;3415;51.148;7.014;2023-05-07T13:35:07;2.17;;;1.97;;
6755;SDS011;3415;51.148;7.014;2023-05-07T13:37:35;2.27;;;1.90;;
6755;SDS011;3415;51.148;7.014;2023-05-07T13:40:03;3.33;;;1.90;;
6755;SDS011;3415;51.148;7.014;2023-05-07T13:42:30;2.40;;;2.20;;
6755;SDS011;3415;51.148;7.014;2023-05-07T13:44:58;2.20;;;1.80;;
6755;SDS011;3415;51.148;7.014;2023-05-07T13:47:26;38.83;;;4.20;;
6755;SDS011;3415;51.148;7.014;2023-05-07T13:49:53;4.33;;;2.00;;
6755;SDS011;3415;51.148;7.014;2023-05-07T13:52:20;1.63;;;1.53;;
6755;SDS011;3415;51.148;7.014;2023-05-07T13:54:49;1.97;;;1.50;;
6755;SDS011;3415;51.148;7.014;2023-05-07T13:57:17;2.03;;;1.63;;
6755;SDS011;3415;51.148;7.014;2023-05-07T13:59:44;4.73;;;2.40;;
6755;SDS011;3415;51.148;7.014;2023-05-07T14:02:11;2.00;;;1.40;;
6755;SDS011;3415;51.148;7.014;2023-05-07T14:04:38;4.20;;;1.57;;
6755;SDS011;3415;51.148;7.014;2023-05-07T14:07:05;1.53;;;1.43;;
6755;SDS011;3415;51.148;7.014;2023-05-07T14:09:32;1.53;;;1.40;;
6755;SDS011;3415;51.148;7.014;2023-05-07T14:12:01;1.50;;;1.40;;
6755;SDS011;3415;51.148;7.014;2023-05-07T14:14:28;2.00;;;1.60;;
6755;SDS011;3415;51.148;7.014;2023-05-07T14:16:55;1.60;;;1.40;;
6755;SDS011;3415;51.148;7.014;2023-05-07T14:19:23;3.47;;;1.83;;
6755;SDS011;3415;51.148;7.014;2023-05-07T14:21:49;1.60;;;1.50;;
6755;SDS011;3415;51.148;7.014;2023-05-07T14:24:17;1.73;;;1.60;;
6755;SDS011;3415;51.148;7.014;2023-05-07T14:26:43;3.67;;;1.60;;
6755;SDS011;3415;51.148;7.014;2023-05-07T14:29:12;1.80;;;1.70;;
6755;SDS011;3415;51.148;7.014;2023-05-07T14:31:40;2.00;;;1.90;;
6755;SDS011;3415;51.148;7.014;2023-05-07T14:34:07;6.93;;;2.37;;
6755;SDS011;3415;51.148;7.014;2023-05-07T14:36:34;4.07;;;2.47;;
6755;SDS011;3415;51.148;7.014;2023-05-07T14:39:01;6.00;;;2.77;;
6755;SDS011;3415;51.148;7.014;2023-05-07T14:41:28;4.40;;;2.50;;
6755;SDS011;3415;51.148;7.014;2023-05-07T14:43:54;6.17;;;3.57;;
6755;SDS011;3415;51.148;7.014;2023-05-07T14:46:23;7.53;;;3.50;;
6755;SDS011;3415;51.148;7.014;2023-05-07T14:48:50;4.70;;;3.23;;
6755;SDS011;3415;51.148;7.014;2023-05-07T14:51:17;3.97;;;3.13;;
6755;SDS011;3415;51.148;7.014;2023-05-07T14:53:44;4.60;;;3.20;;
6755;SDS011;3415;51.148;7.014;2023-05-07T14:56:11;3.63;;;3.27;;
6755;SDS011;3415;51.148;7.014;2023-05-07T14:58:38;5.27;;;3.53;;
6755;SDS011;3415;51.148;7.014;2023-05-07T15:01:05;3.30;;;2.63;;
6755;SDS011;3415;51.148;7.014;2023-05-07T15:03:33;6.60;;;2.97;;
6755;SDS011;3415;51.148;7.014;2023-05-07T15:06:01;4.53;;;2.80;;
6755;SDS011;3415;51.148;7.014;2023-05-07T15:08:28;2.83;;;2.47;;
6755;SDS011;3415;51.148;7.014;2023-05-07T15:10:55;5.63;;;3.37;;
6755;SDS011;3415;51.148;7.014;2023-05-07T15:13:22;4.50;;;3.20;;
6755;SDS011;3415;51.148;7.014;2023-05-07T15:15:48;6.77;;;3.90;;
6755;SDS011;3415;51.148;7.014;2023-05-07T15:18:15;5.90;;;4.03;;
6755;SDS011;3415;51.148;7.014;2023-05-07T15:20:44;6.40;;;4.00;;
6755;SDS011;3415;51.148;7.014;2023-05-07T15:23:11;5.90;;;4.00;;